createdAt,value
2017-07-03T00:02:14.256Z,2.60
2017-07-03T00:04:44.810Z,1.87
2017-07-03T00:07:13.619Z,2.00
2017-07-03T00:10:07.235Z,2.80
2017-07-03T00:12:37.665Z,1.90
2017-07-03T00:15:06.540Z,2.50
2017-07-03T00:17:35.555Z,1.90
2017-07-03T00:20:03.722Z,2.30
2017-07-03T00:22:32.386Z,2.60
2017-07-03T00:25:01.300Z,2.57
2017-07-03T00:27:39.686Z,3.50
2017-07-03T00:30:12.695Z,2.40
2017-07-03T00:32:40.875Z,2.50
2017-07-03T00:35:10.324Z,2.30
2017-07-03T00:37:39.125Z,1.80
2017-07-03T00:40:11.877Z,2.50
2017-07-03T00:42:40.068Z,3.00
2017-07-03T00:45:09.205Z,2.50
2017-07-03T00:47:38.500Z,2.60
2017-07-03T00:50:06.715Z,2.60
2017-07-03T00:52:36.784Z,2.93
2017-07-03T00:55:07.878Z,2.10
2017-07-03T00:57:39.534Z,2.33
2017-07-03T01:00:07.704Z,2.90
2017-07-03T01:02:35.902Z,4.03
2017-07-03T01:05:04.103Z,3.20
2017-07-03T01:07:32.256Z,2.83
2017-07-03T01:10:01.297Z,2.77
2017-07-03T01:12:30.175Z,2.27
2017-07-03T01:14:58.307Z,2.87
2017-07-03T01:17:30.535Z,2.30
2017-07-03T01:19:58.763Z,2.40
2017-07-03T01:22:26.866Z,2.53
2017-07-03T01:24:56.310Z,3.00
2017-07-03T01:27:30.980Z,2.07
2017-07-03T01:30:12.015Z,2.20
2017-07-03T01:32:53.051Z,3.00
2017-07-03T01:35:21.211Z,2.00
2017-07-03T01:37:52.919Z,3.10
2017-07-03T01:40:21.141Z,2.90
2017-07-03T01:42:49.279Z,3.63
2017-07-03T01:45:17.430Z,3.07
2017-07-03T01:47:46.370Z,2.50
2017-07-03T01:50:14.466Z,2.70
2017-07-03T01:52:42.629Z,3.10
2017-07-03T01:55:10.785Z,3.60
2017-07-03T01:57:38.909Z,2.57
2017-07-03T02:00:07.107Z,3.10
2017-07-03T02:02:35.249Z,3.60
2017-07-03T02:05:03.391Z,2.40
2017-07-03T02:07:31.506Z,2.50
2017-07-03T02:10:00.845Z,2.70
2017-07-03T02:12:29.306Z,2.40
2017-07-03T02:15:07.102Z,2.50
2017-07-03T02:17:35.260Z,2.50
2017-07-03T02:20:04.179Z,2.83
2017-07-03T02:22:32.662Z,2.50
2017-07-03T02:25:01.767Z,2.93
2017-07-03T02:27:29.934Z,2.67
2017-07-03T02:29:58.100Z,2.60
2017-07-03T02:32:26.251Z,2.33
2017-07-03T02:34:54.397Z,2.93
2017-07-03T02:37:22.513Z,3.33
2017-07-03T02:39:51.286Z,2.50
2017-07-03T02:42:19.617Z,2.73
2017-07-03T02:44:47.765Z,2.60
2017-07-03T02:47:15.891Z,2.93
2017-07-03T02:49:44.070Z,2.77
2017-07-03T02:52:12.188Z,3.50
2017-07-03T02:54:41.190Z,2.30
2017-07-03T02:57:11.544Z,2.83
2017-07-03T02:59:39.736Z,2.67
2017-07-03T03:02:08.235Z,2.63
2017-07-03T03:04:36.664Z,2.50
2017-07-03T03:07:18.206Z,2.70
2017-07-03T03:09:46.498Z,2.83
2017-07-03T03:12:16.435Z,2.70
2017-07-03T03:14:44.553Z,2.83
2017-07-03T03:17:30.348Z,2.60
2017-07-03T03:19:59.858Z,3.50
2017-07-03T03:22:28.411Z,2.80
2017-07-03T03:24:57.555Z,2.63
2017-07-03T03:27:25.697Z,3.37
2017-07-03T03:29:54.708Z,2.40
2017-07-03T03:32:22.812Z,3.07
2017-07-03T03:34:51.261Z,2.90
2017-07-03T03:37:19.862Z,2.70
2017-07-03T03:39:55.025Z,2.67
2017-07-03T03:42:25.902Z,2.20
2017-07-03T03:44:54.562Z,3.17
2017-07-03T03:47:24.485Z,2.93
2017-07-03T03:49:52.655Z,2.30
2017-07-03T03:52:21.331Z,1.80
2017-07-03T03:55:06.646Z,2.67
2017-07-03T03:57:37.054Z,2.53
2017-07-03T04:00:08.755Z,2.10
2017-07-03T04:02:38.826Z,3.40
2017-07-03T04:05:07.062Z,3.10
2017-07-03T04:07:35.221Z,2.30
2017-07-03T04:10:03.688Z,2.60
2017-07-03T04:12:31.890Z,2.37
2017-07-03T04:15:00.037Z,2.80
2017-07-03T04:17:28.229Z,2.50
2017-07-03T04:19:56.365Z,3.00
2017-07-03T04:22:24.461Z,2.40
2017-07-03T04:24:52.677Z,3.07
2017-07-03T04:27:22.424Z,3.20
2017-07-03T04:29:50.551Z,2.40
2017-07-03T04:32:18.695Z,2.83
2017-07-03T04:34:46.868Z,2.13
2017-07-03T04:37:15.033Z,2.60
2017-07-03T04:39:43.135Z,2.50
2017-07-03T04:42:11.265Z,2.17
2017-07-03T04:44:40.177Z,2.47
2017-07-03T04:47:08.334Z,2.43
2017-07-03T04:49:38.322Z,3.00
2017-07-03T04:52:06.426Z,2.20
2017-07-03T04:54:34.573Z,2.90
2017-07-03T04:57:02.713Z,2.23
2017-07-03T04:59:30.830Z,2.30
2017-07-03T05:01:59.765Z,2.80
2017-07-03T05:04:27.889Z,2.50
2017-07-03T05:06:56.034Z,2.70
2017-07-03T05:09:24.571Z,3.40
2017-07-03T05:11:52.778Z,2.30
2017-07-03T05:14:20.910Z,2.50
2017-07-03T05:16:49.817Z,2.67
2017-07-03T05:19:17.935Z,2.77
2017-07-03T05:21:46.883Z,3.00
2017-07-03T05:24:15.061Z,3.00
2017-07-03T05:26:45.922Z,2.77
2017-07-03T05:29:15.645Z,2.50
2017-07-03T05:31:44.583Z,2.60
2017-07-03T05:34:15.211Z,2.10
2017-07-03T05:36:44.457Z,2.20
2017-07-03T05:39:12.658Z,2.50
2017-07-03T05:41:40.805Z,2.60
2017-07-03T05:44:14.718Z,2.00
2017-07-03T05:46:42.830Z,2.50
2017-07-03T05:49:17.903Z,3.10
2017-07-03T05:51:48.658Z,2.27
2017-07-03T05:54:19.289Z,2.30
2017-07-03T05:56:51.652Z,2.43
2017-07-03T05:59:19.820Z,2.60
2017-07-03T06:01:48.508Z,3.00
2017-07-03T06:04:16.678Z,2.70
2017-07-03T06:06:44.816Z,2.63
2017-07-03T06:09:12.975Z,2.30
2017-07-03T06:11:41.145Z,2.57
2017-07-03T06:14:09.279Z,2.20
2017-07-03T06:16:37.428Z,2.37
2017-07-03T06:19:05.562Z,2.40
2017-07-03T06:21:38.402Z,2.03
2017-07-03T06:24:07.774Z,2.00
2017-07-03T06:26:36.129Z,1.90
2017-07-03T06:29:04.274Z,2.10
2017-07-03T06:31:32.505Z,2.30
2017-07-03T06:34:00.692Z,2.30
2017-07-03T06:36:28.884Z,2.20
2017-07-03T06:38:57.041Z,2.13
2017-07-03T06:41:25.232Z,1.97
2017-07-03T06:46:37.216Z,2.10
2017-07-03T06:49:06.290Z,3.77
2017-07-03T06:51:34.506Z,2.23
2017-07-03T06:56:36.320Z,1.87
2017-07-03T06:59:04.551Z,1.83
2017-07-03T07:01:45.691Z,1.83
2017-07-03T07:04:22.859Z,2.63
2017-07-03T07:06:51.083Z,2.13
2017-07-03T07:09:19.226Z,2.17
2017-07-03T07:11:49.044Z,1.93
2017-07-03T07:14:17.329Z,1.47
2017-07-03T07:16:47.338Z,2.03
2017-07-03T07:19:16.422Z,1.83
2017-07-03T07:21:46.272Z,2.30
2017-07-03T07:24:14.571Z,1.83
2017-07-03T07:29:18.466Z,1.80
2017-07-03T07:31:47.062Z,2.03
2017-07-03T07:34:15.515Z,2.40
2017-07-03T07:36:43.632Z,1.93
2017-07-03T07:39:15.094Z,2.07
2017-07-03T07:41:43.232Z,1.97
2017-07-03T07:44:15.170Z,1.80
2017-07-03T07:46:43.592Z,1.70
2017-07-03T07:49:11.738Z,2.60
2017-07-03T07:51:39.910Z,2.50
2017-07-03T07:54:08.040Z,2.10
2017-07-03T07:59:26.757Z,1.60
2017-07-03T08:01:58.929Z,2.30
2017-07-03T08:09:58.210Z,1.70
2017-07-03T08:12:26.410Z,1.70
2017-07-03T08:14:57.266Z,1.40
2017-07-03T08:17:27.902Z,1.40
2017-07-03T08:19:56.713Z,2.00
2017-07-03T08:22:26.733Z,2.00
2017-07-03T08:24:54.906Z,1.63
2017-07-03T08:27:27.936Z,1.80
2017-07-03T08:29:56.062Z,1.93
2017-07-03T08:32:24.287Z,1.47
2017-07-03T08:34:52.457Z,1.20
2017-07-03T08:37:22.294Z,1.53
2017-07-03T08:39:51.721Z,1.40
2017-07-03T08:42:27.342Z,1.20
2017-07-03T08:44:57.386Z,1.60
2017-07-03T08:47:25.564Z,1.10
2017-07-03T08:49:54.662Z,1.80
2017-07-03T08:52:24.695Z,1.47
2017-07-03T08:54:57.202Z,1.70
2017-07-03T08:57:25.394Z,1.73
2017-07-03T08:59:53.600Z,1.63
2017-07-03T09:02:22.228Z,1.60
2017-07-03T09:04:50.549Z,1.00
2017-07-03T09:07:18.778Z,1.70
2017-07-03T09:09:46.984Z,1.00
2017-07-03T09:12:16.943Z,1.37
2017-07-03T09:14:45.104Z,1.60
2017-07-03T09:17:13.304Z,1.50
2017-07-03T09:19:42.903Z,1.53
2017-07-03T09:22:14.286Z,1.43
2017-07-03T09:24:43.215Z,1.90
2017-07-03T09:27:16.714Z,2.23
2017-07-03T09:29:46.039Z,1.87
2017-07-03T09:32:18.420Z,1.60
2017-07-03T09:34:46.703Z,1.50
2017-07-03T09:37:14.904Z,1.80
2017-07-03T09:42:18.542Z,1.70
2017-07-03T09:44:47.447Z,1.53
2017-07-03T09:47:15.701Z,1.60
2017-07-03T09:49:44.602Z,1.40
2017-07-03T09:52:13.597Z,2.00
2017-07-03T09:54:50.600Z,1.50
2017-07-03T09:57:20.574Z,1.77
2017-07-03T09:59:49.034Z,1.63
2017-07-03T10:02:17.239Z,1.37
2017-07-03T10:04:45.752Z,1.73
2017-07-03T10:07:13.967Z,1.67
2017-07-03T10:09:42.848Z,1.83
2017-07-03T10:12:11.782Z,1.70
2017-07-03T10:14:40.127Z,1.60
2017-07-03T10:17:12.156Z,1.27
2017-07-03T10:19:41.211Z,1.67
2017-07-03T10:22:11.244Z,1.70
2017-07-03T10:24:47.008Z,1.60
2017-07-03T10:27:24.761Z,1.70
2017-07-03T10:29:53.474Z,1.83
2017-07-03T10:34:58.159Z,1.70
2017-07-03T10:37:27.704Z,1.60
2017-07-03T10:39:57.083Z,1.63
2017-07-03T10:42:27.054Z,1.50
2017-07-03T10:44:57.428Z,1.93
2017-07-03T10:47:25.736Z,1.70
2017-07-03T10:50:01.145Z,2.30
2017-07-03T10:55:08.745Z,1.90
2017-07-03T10:57:39.387Z,1.83
2017-07-03T11:00:07.625Z,1.80
2017-07-03T11:02:35.761Z,1.80
2017-07-03T11:05:04.173Z,1.73
2017-07-03T11:07:33.473Z,1.93
2017-07-03T11:10:04.061Z,1.50
2017-07-03T11:12:38.084Z,1.30
2017-07-03T11:15:09.748Z,1.90
2017-07-03T11:17:38.328Z,1.37
2017-07-03T11:20:07.744Z,2.60
2017-07-03T11:22:39.574Z,1.80
2017-07-03T11:25:08.051Z,2.10
2017-07-03T11:27:36.537Z,1.63
2017-07-03T11:30:05.315Z,1.90
2017-07-03T11:32:33.502Z,1.80
2017-07-03T11:35:02.743Z,1.50
2017-07-03T11:37:32.278Z,2.93
2017-07-03T11:40:03.792Z,1.70
2017-07-03T11:42:33.017Z,2.00
2017-07-03T11:45:11.841Z,1.47
2017-07-03T11:47:42.680Z,1.80
2017-07-03T11:50:12.323Z,1.97
2017-07-03T11:52:42.433Z,1.80
2017-07-03T11:55:12.507Z,1.90
2017-07-03T11:57:40.899Z,2.30
2017-07-03T12:00:17.451Z,1.50
2017-07-03T12:02:47.611Z,2.10
2017-07-03T12:05:15.771Z,1.80
2017-07-03T12:07:44.085Z,1.80
2017-07-03T12:10:12.722Z,1.93
2017-07-03T12:12:40.904Z,1.47
2017-07-03T12:15:10.264Z,1.50
2017-07-03T12:17:39.078Z,1.97
2017-07-03T12:20:11.190Z,1.93
2017-07-03T12:22:40.447Z,1.30
2017-07-03T12:25:10.938Z,2.03
2017-07-03T12:27:54.261Z,2.53
2017-07-03T12:30:26.277Z,2.40
2017-07-03T12:32:55.970Z,1.97
2017-07-03T12:35:24.105Z,1.80
2017-07-03T12:37:59.076Z,1.73
2017-07-03T12:40:27.323Z,2.40
2017-07-03T12:42:55.507Z,1.90
2017-07-03T12:45:23.695Z,2.07
2017-07-03T12:48:01.573Z,1.80
2017-07-03T12:50:29.735Z,1.93
2017-07-03T12:52:58.698Z,1.60
2017-07-03T12:55:27.144Z,1.60
2017-07-03T12:57:55.893Z,1.80
2017-07-03T13:00:27.059Z,1.40
2017-07-03T13:02:55.975Z,1.60
2017-07-03T13:05:24.106Z,1.73
2017-07-03T13:07:52.252Z,1.97
2017-07-03T13:10:20.575Z,1.87
2017-07-03T13:12:51.190Z,2.30
2017-07-03T13:15:20.154Z,2.20
2017-07-03T13:17:48.288Z,1.90
2017-07-03T13:20:16.502Z,2.77
2017-07-03T13:22:45.610Z,1.60
2017-07-03T13:25:15.003Z,1.87
2017-07-03T13:27:57.206Z,1.70
2017-07-03T13:30:25.371Z,2.10
2017-07-03T13:32:53.596Z,1.80
2017-07-03T13:35:21.794Z,2.50
2017-07-03T13:37:51.358Z,2.20
2017-07-03T13:43:15.954Z,1.97
2017-07-03T13:45:44.308Z,1.70
2017-07-03T13:48:12.449Z,1.80
2017-07-03T13:50:40.598Z,1.53
2017-07-03T13:53:08.745Z,1.80
2017-07-03T13:58:09.310Z,2.17
2017-07-03T14:00:37.467Z,1.70
2017-07-03T14:03:06.387Z,1.67
2017-07-03T14:05:37.096Z,2.13
2017-07-03T14:08:05.341Z,2.20
2017-07-03T14:10:37.220Z,2.00
2017-07-03T14:13:07.803Z,1.90
2017-07-03T14:15:40.723Z,2.33
2017-07-03T14:20:45.463Z,1.60
2017-07-03T14:23:13.628Z,1.63
2017-07-03T14:25:41.994Z,1.70
2017-07-03T14:28:10.120Z,1.53
2017-07-03T14:30:40.385Z,1.93
2017-07-03T14:33:09.255Z,1.50
2017-07-03T14:35:38.430Z,2.30
2017-07-03T14:38:07.281Z,1.77
2017-07-03T14:40:37.537Z,1.60
2017-07-03T14:43:05.722Z,1.97
2017-07-03T14:45:33.880Z,1.80
2017-07-03T14:48:02.409Z,2.20
2017-07-03T14:50:35.473Z,1.63
2017-07-03T14:53:04.996Z,1.97
2017-07-03T14:55:33.145Z,1.73
2017-07-03T14:58:01.337Z,2.17
2017-07-03T15:00:34.100Z,1.73
2017-07-03T15:03:02.303Z,2.10
2017-07-03T15:05:31.447Z,1.50
2017-07-03T15:07:59.628Z,1.87
2017-07-03T15:10:27.984Z,1.83
2017-07-03T15:12:56.790Z,1.77
2017-07-03T15:15:26.275Z,1.97
2017-07-03T15:17:54.389Z,1.90
2017-07-03T15:20:24.570Z,1.87
2017-07-03T15:22:54.028Z,1.57
2017-07-03T15:25:24.902Z,2.10
2017-07-03T15:27:53.970Z,1.50
2017-07-03T15:30:22.163Z,2.00
2017-07-03T15:32:50.363Z,2.33
2017-07-03T15:35:19.105Z,1.83
2017-07-03T15:37:47.356Z,1.67
2017-07-03T15:40:15.781Z,1.40
2017-07-03T15:42:44.069Z,1.67
2017-07-03T15:45:29.803Z,2.20
2017-07-03T15:48:01.189Z,2.13
2017-07-03T15:50:30.386Z,3.00
2017-07-03T15:53:04.653Z,2.43
2017-07-03T15:55:33.750Z,2.40
2017-07-03T15:58:02.059Z,2.60
2017-07-03T16:00:31.283Z,2.77
2017-07-03T16:03:02.428Z,2.40
2017-07-03T16:05:30.555Z,2.50
2017-07-03T16:07:58.725Z,2.90
2017-07-03T16:10:27.281Z,2.80
2017-07-03T16:12:55.574Z,2.90
2017-07-03T16:15:23.730Z,2.87
2017-07-03T16:17:53.097Z,2.67
2017-07-03T16:20:26.212Z,3.23
2017-07-03T16:22:57.053Z,3.03
2017-07-03T16:25:28.722Z,2.83
2017-07-03T16:28:04.421Z,2.80
2017-07-03T16:30:32.766Z,2.47
2017-07-03T16:33:05.686Z,3.50
2017-07-03T16:35:40.742Z,2.37
2017-07-03T16:38:13.692Z,2.70
2017-07-03T16:40:48.069Z,2.83
2017-07-03T16:46:17.634Z,2.73
2017-07-03T16:51:45.768Z,2.50
2017-07-03T16:54:21.449Z,3.20
2017-07-03T16:56:51.446Z,2.67
2017-07-03T16:59:26.063Z,2.97
2017-07-03T17:01:56.914Z,4.30
2017-07-03T17:04:28.969Z,4.90
2017-07-03T17:06:59.751Z,4.27
2017-07-03T17:09:31.819Z,3.33
2017-07-03T17:12:00.155Z,3.50
2017-07-03T17:14:29.405Z,4.53
2017-07-03T17:16:57.792Z,5.33
2017-07-03T17:19:29.815Z,5.27
2017-07-03T17:22:00.080Z,5.47
2017-07-03T17:24:31.771Z,5.23
2017-07-03T17:27:00.015Z,5.40
2017-07-03T17:29:28.800Z,5.90
2017-07-03T17:31:57.222Z,5.77
2017-07-03T17:34:28.163Z,5.50
2017-07-03T17:36:59.393Z,6.10
2017-07-03T17:39:28.352Z,5.47
2017-07-03T17:41:57.450Z,6.43
2017-07-03T17:44:25.621Z,6.50
2017-07-03T17:46:54.721Z,6.30
2017-07-03T17:49:24.610Z,5.70
2017-07-03T17:51:52.916Z,6.10
2017-07-03T17:54:21.039Z,6.50
2017-07-03T17:56:49.208Z,6.27
2017-07-03T17:59:17.541Z,6.07
2017-07-03T18:01:46.881Z,5.27
2017-07-03T18:04:15.072Z,5.53
2017-07-03T18:06:53.132Z,4.90
2017-07-03T18:09:21.377Z,5.20
2017-07-03T18:11:49.521Z,5.43
2017-07-03T18:14:18.606Z,5.50
2017-07-03T18:16:49.360Z,6.47
2017-07-03T18:19:22.576Z,5.20
2017-07-03T18:21:52.059Z,4.27
2017-07-03T18:24:20.253Z,4.20
2017-07-03T18:26:49.335Z,4.57
2017-07-03T18:29:32.256Z,3.47
2017-07-03T18:32:01.971Z,4.03
2017-07-03T18:34:32.445Z,5.17
2017-07-03T18:37:02.421Z,4.23
2017-07-03T18:39:36.941Z,3.63
2017-07-03T18:42:05.112Z,4.30
2017-07-03T18:44:42.865Z,3.90
2017-07-03T18:47:13.190Z,4.40
2017-07-03T18:49:45.108Z,4.23
2017-07-03T18:52:14.600Z,5.10
2017-07-03T18:54:44.071Z,5.50
2017-07-03T18:57:14.528Z,4.10
2017-07-03T18:59:45.672Z,3.97
2017-07-03T19:02:17.045Z,4.10
2017-07-03T19:04:45.787Z,4.47
2017-07-03T19:07:16.716Z,3.80
2017-07-03T19:09:45.178Z,4.23
2017-07-03T19:12:17.252Z,4.67
2017-07-03T19:14:47.007Z,4.20
2017-07-03T19:17:17.028Z,5.57
2017-07-03T19:22:58.651Z,5.60
2017-07-03T19:28:41.966Z,4.27
2017-07-03T19:31:15.037Z,4.27
2017-07-03T19:33:43.515Z,4.90
2017-07-03T19:36:23.360Z,4.37
2017-07-03T19:38:56.238Z,4.43
2017-07-03T19:49:19.186Z,4.20
2017-07-03T19:51:51.502Z,5.47
2017-07-03T19:54:20.938Z,5.50
2017-07-03T19:56:54.588Z,4.80
2017-07-03T19:59:25.716Z,6.80
2017-07-03T20:05:25.089Z,5.03
2017-07-03T20:08:19.536Z,5.43
2017-07-03T20:15:20.203Z,4.00
2017-07-03T20:17:48.353Z,4.10
2017-07-03T20:20:18.200Z,5.07
2017-07-03T20:26:05.571Z,3.87
2017-07-03T20:28:35.848Z,3.47
2017-07-03T20:31:08.154Z,4.37
2017-07-03T20:33:37.447Z,3.50
2017-07-03T20:36:06.941Z,4.43
2017-07-03T20:41:46.933Z,3.90
2017-07-03T20:44:15.146Z,3.50
2017-07-03T21:22:44.777Z,4.27
2017-07-03T21:25:12.968Z,3.67
2017-07-03T21:27:41.080Z,4.37
2017-07-03T21:30:10.333Z,4.40
2017-07-03T21:32:40.342Z,4.70
2017-07-03T21:35:09.158Z,3.87
2017-07-03T21:37:40.150Z,4.00
2017-07-03T21:40:09.202Z,5.03
2017-07-03T21:42:38.206Z,5.80
2017-07-03T21:45:08.069Z,5.00
2017-07-03T21:47:37.981Z,4.00
2017-07-03T21:50:06.770Z,3.77
2017-07-03T21:52:35.849Z,4.73
2017-07-03T21:55:04.765Z,3.93
2017-07-03T21:57:33.644Z,4.20
2017-07-03T22:00:01.946Z,5.20
2017-07-03T22:02:30.916Z,5.20
2017-07-03T22:04:59.917Z,4.60
2017-07-03T22:07:28.922Z,4.37
2017-07-03T22:09:57.053Z,4.80
2017-07-03T22:12:25.209Z,4.93
2017-07-03T22:14:54.342Z,4.50
2017-07-03T22:17:25.242Z,4.70
2017-07-03T22:19:54.577Z,4.00
2017-07-03T22:22:24.610Z,4.47
2017-07-03T22:24:53.642Z,5.07
2017-07-03T22:27:22.982Z,4.60
2017-07-03T22:29:54.394Z,4.57
2017-07-03T22:32:22.522Z,4.40
2017-07-03T22:34:51.311Z,5.13
2017-07-03T22:37:29.175Z,5.13
2017-07-03T22:39:57.296Z,5.73
2017-07-03T22:42:26.202Z,4.47
2017-07-03T22:44:55.366Z,4.33
2017-07-03T22:47:24.379Z,4.40
2017-07-03T22:49:53.055Z,5.50
2017-07-03T22:52:21.235Z,4.77
2017-07-03T22:54:49.406Z,5.13
2017-07-03T22:57:18.314Z,5.10
2017-07-03T22:59:46.540Z,5.77
2017-07-03T23:02:15.218Z,5.40
2017-07-03T23:04:44.112Z,5.40
2017-07-03T23:07:12.985Z,5.10
2017-07-03T23:09:41.874Z,4.73
2017-07-03T23:12:11.915Z,5.50
2017-07-03T23:14:41.366Z,5.23
2017-07-03T23:17:09.511Z,4.70
2017-07-03T23:19:38.417Z,5.20
2017-07-03T23:22:07.500Z,5.53
2017-07-03T23:24:37.218Z,5.53
2017-07-03T23:27:05.333Z,5.20
2017-07-03T23:29:33.494Z,5.30
2017-07-03T23:32:01.634Z,5.33
2017-07-03T23:34:30.776Z,5.77
2017-07-03T23:37:00.360Z,6.07
2017-07-03T23:39:28.477Z,5.20
2017-07-03T23:41:57.121Z,5.70
2017-07-03T23:44:26.412Z,5.70
2017-07-03T23:46:55.348Z,6.20
2017-07-03T23:49:23.969Z,6.00
2017-07-03T23:51:52.094Z,6.17
2017-07-03T23:54:20.962Z,5.13
2017-07-03T23:56:49.280Z,6.17
2017-07-03T23:59:18.609Z,5.73
